createdAt,value
2023-05-25T00:01:56.207Z,65.05
2023-05-25T00:04:23.442Z,64.78
2023-05-25T00:06:56.968Z,64.96
2023-05-25T00:09:19.820Z,65.16
2023-05-25T00:11:55.459Z,64.70
2023-05-25T00:14:32.147Z,64.96
2023-05-25T00:16:52.766Z,64.76
2023-05-25T00:19:29.497Z,65.30
2023-05-25T00:22:05.404Z,65.38
2023-05-25T00:24:34.860Z,65.37
2023-05-25T00:26:55.589Z,66.00
2023-05-25T00:29:19.144Z,66.04
2023-05-25T00:31:54.264Z,66.08
2023-05-25T00:34:30.438Z,66.52
2023-05-25T00:37:05.023Z,66.73
2023-05-25T00:39:31.610Z,67.30
2023-05-25T00:41:53.571Z,68.02
2023-05-25T00:44:22.795Z,68.32
2023-05-25T00:46:57.585Z,68.31
2023-05-25T00:49:20.646Z,68.43
2023-05-25T00:51:55.864Z,68.42
2023-05-25T00:54:30.633Z,68.35
2023-05-25T00:57:05.591Z,68.38
2023-05-25T00:59:46.831Z,68.69
2023-05-25T01:02:12.027Z,68.80
2023-05-25T01:04:46.611Z,68.65
2023-05-25T01:07:21.137Z,69.00
2023-05-25T01:10:00.425Z,69.71
2023-05-25T01:12:26.101Z,68.76
2023-05-25T01:15:03.527Z,68.67
2023-05-25T01:17:41.496Z,68.72
2023-05-25T01:22:41.549Z,67.52
2023-05-25T01:25:23.755Z,68.16
2023-05-25T01:27:57.909Z,68.80
2023-05-25T01:30:28.770Z,68.95
2023-05-25T01:32:57.009Z,68.85
2023-05-25T01:35:25.841Z,69.25
2023-05-25T01:38:04.989Z,68.89
2023-05-25T01:40:26.621Z,69.04
2023-05-25T01:43:02.268Z,68.74
2023-05-25T01:45:29.903Z,68.02
2023-05-25T01:48:29.437Z,68.63
2023-05-25T01:51:08.518Z,68.54
2023-05-25T01:53:46.219Z,68.86
2023-05-25T01:56:22.797Z,68.75
2023-05-25T01:58:52.023Z,69.04
2023-05-25T02:01:20.570Z,68.85
2023-05-25T02:03:56.700Z,68.97
2023-05-25T02:06:22.596Z,69.18
2023-05-25T02:08:57.829Z,69.18
2023-05-25T02:11:32.892Z,69.01
2023-05-25T02:13:49.861Z,68.90
2023-05-25T02:16:21.402Z,68.98
2023-05-25T02:18:56.330Z,69.11
2023-05-25T02:21:30.125Z,69.08
2023-05-25T02:24:04.812Z,69.22
2023-05-25T02:26:31.234Z,69.50
2023-05-25T02:29:05.470Z,69.43
2023-05-25T02:31:32.740Z,69.65
2023-05-25T02:34:07.096Z,69.89
2023-05-25T02:36:33.080Z,69.79
2023-05-25T02:39:10.083Z,70.15
2023-05-25T02:41:43.934Z,70.13
2023-05-25T02:44:18.100Z,70.19
2023-05-25T02:46:48.585Z,70.33
2023-05-25T02:49:16.033Z,70.11
2023-05-25T02:51:43.689Z,70.14
2023-05-25T02:54:12.811Z,70.45
2023-05-25T02:56:48.340Z,70.39
2023-05-25T02:59:09.081Z,70.54
2023-05-25T03:01:41.860Z,70.46
2023-05-25T03:04:17.073Z,70.55
2023-05-25T03:06:46.495Z,70.70
2023-05-25T03:09:21.355Z,70.76
2023-05-25T03:11:56.038Z,70.90
2023-05-25T03:14:24.717Z,71.17
2023-05-25T03:16:43.613Z,71.16
2023-05-25T03:19:03.085Z,71.18
2023-05-25T03:21:38.796Z,71.24
2023-05-25T03:24:13.535Z,71.15
2023-05-25T03:26:47.494Z,71.23
2023-05-25T03:29:15.129Z,71.27
2023-05-25T03:31:34.813Z,71.29
2023-05-25T03:34:09.213Z,71.37
2023-05-25T03:36:28.949Z,71.48
2023-05-25T03:39:03.280Z,71.52
2023-05-25T03:41:38.211Z,71.33
2023-05-25T03:43:58.400Z,71.42
2023-05-25T03:46:23.834Z,71.47
2023-05-25T03:48:59.183Z,71.51
2023-05-25T03:51:27.332Z,71.57
2023-05-25T03:54:01.281Z,71.74
2023-05-25T03:56:27.498Z,71.70
2023-05-25T03:58:51.809Z,71.65
2023-05-25T04:01:30.268Z,71.73
2023-05-25T04:03:56.766Z,71.67
2023-05-25T04:06:32.292Z,71.66
2023-05-25T04:08:55.778Z,71.78
2023-05-25T04:11:11.624Z,71.79
2023-05-25T04:13:26.449Z,71.90
2023-05-25T04:15:42.551Z,71.91
2023-05-25T04:18:06.142Z,72.00
2023-05-25T04:20:21.775Z,72.15
2023-05-25T04:22:40.358Z,72.20
2023-05-25T04:24:55.520Z,72.23
2023-05-25T04:27:29.690Z,72.14
2023-05-25T04:29:51.567Z,71.91
2023-05-25T04:32:33.191Z,71.80
2023-05-25T04:35:17.617Z,72.01
2023-05-25T04:37:33.778Z,72.21
2023-05-25T04:40:13.478Z,72.01
2023-05-25T04:42:32.578Z,71.92
2023-05-25T04:44:59.725Z,72.19
2023-05-25T04:47:36.390Z,72.33
2023-05-25T04:49:59.273Z,72.34
2023-05-25T04:52:16.622Z,72.18
2023-05-25T04:54:31.568Z,72.21
2023-05-25T04:56:48.163Z,72.26
2023-05-25T04:59:01.998Z,72.35
2023-05-25T05:01:16.793Z,72.27
2023-05-25T05:03:31.111Z,72.27
2023-05-25T05:05:47.007Z,72.35
2023-05-25T05:08:07.201Z,72.44
2023-05-25T05:10:21.909Z,72.45
2023-05-25T05:12:41.928Z,72.59
2023-05-25T05:14:57.329Z,72.77
2023-05-25T05:17:16.529Z,73.07
2023-05-25T05:19:30.338Z,73.14
2023-05-25T05:22:06.430Z,73.32
2023-05-25T05:24:22.787Z,73.41
2023-05-25T05:26:59.216Z,73.55
2023-05-25T05:29:40.688Z,73.59
2023-05-25T05:32:09.993Z,73.64
2023-05-25T05:34:44.064Z,73.87
2023-05-25T05:37:18.570Z,74.20
2023-05-25T05:39:39.251Z,74.34
2023-05-25T05:42:13.817Z,74.38
2023-05-25T05:44:48.147Z,74.59
2023-05-25T05:47:22.443Z,74.47
2023-05-25T05:49:57.177Z,74.67
2023-05-25T05:52:21.153Z,74.83
2023-05-25T05:54:56.066Z,75.04
2023-05-25T05:57:30.403Z,75.05
2023-05-25T06:00:07.907Z,75.13
2023-05-25T06:02:34.552Z,75.33
2023-05-25T06:05:11.149Z,75.38
2023-05-25T06:07:46.300Z,75.56
2023-05-25T06:10:16.698Z,75.68
2023-05-25T06:12:51.205Z,75.71
2023-05-25T06:15:11.707Z,75.80
2023-05-25T06:17:45.916Z,76.03
2023-05-25T06:20:16.491Z,76.19
2023-05-25T06:22:49.330Z,76.21
2023-05-25T06:25:23.423Z,76.36
2023-05-25T06:27:45.052Z,76.48
2023-05-25T06:30:01.366Z,76.59
2023-05-25T06:32:27.325Z,76.71
2023-05-25T06:34:50.047Z,77.13
2023-05-25T06:37:11.490Z,77.21
2023-05-25T06:39:47.225Z,77.62
2023-05-25T06:42:15.556Z,77.73
2023-05-25T06:44:52.167Z,78.06
2023-05-25T06:47:26.317Z,78.14
2023-05-25T06:50:00.677Z,78.42
2023-05-25T06:52:29.356Z,78.63
2023-05-25T06:55:05.007Z,78.94
2023-05-25T06:57:38.754Z,78.95
2023-05-25T07:00:09.882Z,78.91
2023-05-25T07:02:37.343Z,79.09
2023-05-25T07:05:04.014Z,79.25
2023-05-25T07:07:24.349Z,79.40
2023-05-25T07:09:52.625Z,79.60
2023-05-25T07:12:19.360Z,79.61
2023-05-25T07:14:53.798Z,79.72
2023-05-25T07:17:20.079Z,79.77
2023-05-25T07:19:54.208Z,79.81
2023-05-25T07:22:14.392Z,79.98
2023-05-25T07:24:49.879Z,79.99
2023-05-25T07:27:24.044Z,80.06
2023-05-25T07:29:43.239Z,80.14
2023-05-25T07:32:08.402Z,80.19
2023-05-25T07:34:39.494Z,80.12
2023-05-25T07:37:15.772Z,80.09
2023-05-25T07:39:44.463Z,80.08
2023-05-25T07:42:22.163Z,80.03
2023-05-25T07:44:45.784Z,79.79
2023-05-25T07:47:14.922Z,79.83
2023-05-25T07:49:49.821Z,79.87
2023-05-25T07:52:23.551Z,80.00
2023-05-25T07:54:52.494Z,80.15
2023-05-25T07:57:29.169Z,80.35
2023-05-25T08:00:03.002Z,80.37
2023-05-25T08:02:26.208Z,80.47
2023-05-25T08:04:58.952Z,80.65
2023-05-25T08:07:20.300Z,80.60
2023-05-25T08:09:47.252Z,80.77
2023-05-25T08:12:38.615Z,80.89
2023-05-25T08:15:17.490Z,81.04
2023-05-25T08:17:38.010Z,81.18
2023-05-25T08:20:13.720Z,81.31
2023-05-25T08:22:39.428Z,81.34
2023-05-25T08:25:16.348Z,81.34
2023-05-25T08:27:43.104Z,81.33
2023-05-25T08:30:19.742Z,81.12
2023-05-25T08:32:44.903Z,81.17
2023-05-25T08:35:21.798Z,81.32
2023-05-25T08:37:50.174Z,81.37
2023-05-25T08:40:26.421Z,81.26
2023-05-25T08:42:54.664Z,81.58
2023-05-25T08:45:49.657Z,81.75
2023-05-25T08:48:35.724Z,81.84
2023-05-25T08:51:04.798Z,81.88
2023-05-25T08:53:34.129Z,82.10
2023-05-25T08:56:10.871Z,82.17
2023-05-25T08:58:45.932Z,82.32
2023-05-25T09:01:23.426Z,82.54
2023-05-25T09:03:49.200Z,82.65
2023-05-25T09:06:26.520Z,82.90
2023-05-25T09:09:01.548Z,82.96
2023-05-25T09:11:40.679Z,82.99
2023-05-25T09:14:15.213Z,82.97
2023-05-25T09:16:47.220Z,83.09
2023-05-25T09:19:23.243Z,83.14
2023-05-25T09:21:46.473Z,82.87
2023-05-25T09:24:23.473Z,82.65
2023-05-25T09:26:50.784Z,82.42
2023-05-25T09:29:20.982Z,82.25
2023-05-25T09:31:54.230Z,82.51
2023-05-25T09:34:35.215Z,82.31
2023-05-25T09:37:17.697Z,82.25
2023-05-25T09:39:47.175Z,82.25
2023-05-25T09:42:22.593Z,82.33
2023-05-25T09:44:58.995Z,82.41
2023-05-25T09:47:26.832Z,82.56
2023-05-25T09:49:55.731Z,82.59
2023-05-25T09:52:30.744Z,82.58
2023-05-25T09:54:52.575Z,82.64
2023-05-25T09:57:19.138Z,82.74
2023-05-25T09:59:55.547Z,82.96
2023-05-25T10:02:25.452Z,83.47
2023-05-25T10:04:49.761Z,83.54
2023-05-25T10:07:29.409Z,83.92
2023-05-25T10:09:59.262Z,84.11
2023-05-25T10:12:35.490Z,84.19
2023-05-25T10:15:11.703Z,84.44
2023-05-25T10:17:52.389Z,84.66
2023-05-25T10:20:18.051Z,84.38
2023-05-25T10:23:00.611Z,84.26
2023-05-25T10:25:29.531Z,84.40
2023-05-25T10:28:03.783Z,84.57
2023-05-25T10:30:27.246Z,84.66
2023-05-25T10:33:02.887Z,84.76
2023-05-25T10:35:27.329Z,84.70
2023-05-25T10:38:00.197Z,84.82
2023-05-25T10:40:20.118Z,84.95
2023-05-25T10:42:45.179Z,85.25
2023-05-25T10:45:20.087Z,85.50
2023-05-25T10:47:45.194Z,85.41
2023-05-25T10:50:29.895Z,85.60
2023-05-25T10:53:08.933Z,85.49
2023-05-25T10:55:45.652Z,85.32
2023-05-25T10:58:17.443Z,85.53
2023-05-25T11:01:04.147Z,85.67
2023-05-25T11:03:56.624Z,85.64
2023-05-25T11:07:06.618Z,85.57
2023-05-25T11:09:44.646Z,85.45
2023-05-25T11:12:21.952Z,85.70
2023-05-25T11:15:24.479Z,85.87
2023-05-25T11:18:17.876Z,85.82
2023-05-25T11:20:36.560Z,85.51
2023-05-25T11:23:24.200Z,85.14
2023-05-25T11:25:55.442Z,85.14
2023-05-25T11:28:23.542Z,85.13
2023-05-25T11:30:51.967Z,85.00
2023-05-25T11:33:18.732Z,84.89
2023-05-25T11:35:54.771Z,84.92
2023-05-25T11:38:23.211Z,85.28
2023-05-25T11:40:42.171Z,85.47
2023-05-25T11:43:03.133Z,85.76
2023-05-25T11:45:39.765Z,86.13
2023-05-25T11:48:16.539Z,86.73
2023-05-25T11:50:41.799Z,86.87
2023-05-25T11:53:11.718Z,86.73
2023-05-25T11:55:42.169Z,87.20
2023-05-25T11:58:11.293Z,87.18
2023-05-25T12:00:46.437Z,86.58
2023-05-25T12:03:31.841Z,86.19
2023-05-25T12:06:00.473Z,85.44
2023-05-25T12:08:38.870Z,85.61
2023-05-25T12:11:14.695Z,85.78
2023-05-25T12:13:50.176Z,86.61
2023-05-25T12:16:24.646Z,87.46
2023-05-25T12:19:00.057Z,88.43
2023-05-25T12:21:22.395Z,89.29
2023-05-25T12:23:50.207Z,89.72
2023-05-25T12:26:18.985Z,89.77
2023-05-25T12:29:05.737Z,89.89
2023-05-25T12:31:42.430Z,89.92
2023-05-25T12:34:14.698Z,89.76
2023-05-25T12:36:52.807Z,89.92
2023-05-25T12:39:40.346Z,89.90
2023-05-25T12:42:20.385Z,90.07
2023-05-25T12:44:45.319Z,90.25
2023-05-25T12:47:23.619Z,90.23
2023-05-25T12:49:50.330Z,90.49
2023-05-25T12:52:36.639Z,90.74
2023-05-25T12:55:27.016Z,90.72
2023-05-25T12:57:53.683Z,90.59
2023-05-25T13:00:31.309Z,90.61
2023-05-25T13:03:02.256Z,90.58
2023-05-25T13:05:38.672Z,90.75
2023-05-25T13:08:13.069Z,91.02
2023-05-25T13:10:37.445Z,90.88
2023-05-25T13:13:05.948Z,90.79
2023-05-25T13:15:32.187Z,90.83
2023-05-25T13:17:55.466Z,91.22
2023-05-25T13:20:30.768Z,91.21
2023-05-25T13:22:56.815Z,91.41
2023-05-25T13:25:20.377Z,91.42
2023-05-25T13:27:55.428Z,91.62
2023-05-25T13:30:30.142Z,91.97
2023-05-25T13:32:59.569Z,91.96
2023-05-25T13:35:47.116Z,91.82
2023-05-25T13:38:20.821Z,91.93
2023-05-25T13:40:45.396Z,92.15
2023-05-25T13:43:19.058Z,92.44
2023-05-25T13:45:54.305Z,92.50
2023-05-25T13:48:28.816Z,92.25
2023-05-25T13:51:04.570Z,92.41
2023-05-25T13:53:37.931Z,92.55
2023-05-25T13:56:04.402Z,92.43
2023-05-25T13:58:39.685Z,92.49
2023-05-25T14:01:15.136Z,92.49
2023-05-25T14:03:48.832Z,92.50
2023-05-25T14:06:22.743Z,92.71
2023-05-25T14:08:45.728Z,93.10
2023-05-25T14:11:27.343Z,93.70
2023-05-25T14:13:54.530Z,93.93
2023-05-25T14:16:21.354Z,94.04
2023-05-25T14:18:56.627Z,93.66
2023-05-25T14:21:25.542Z,93.62
2023-05-25T14:23:54.056Z,93.27
2023-05-25T14:26:30.010Z,92.77
2023-05-25T14:28:52.799Z,92.67
2023-05-25T14:31:26.887Z,92.32
2023-05-25T14:33:52.750Z,92.41
2023-05-25T14:36:20.793Z,92.09
2023-05-25T14:38:55.855Z,92.26
2023-05-25T14:41:23.859Z,92.05
2023-05-25T14:43:43.322Z,91.24
2023-05-25T14:46:02.838Z,91.15
2023-05-25T14:48:29.392Z,90.94
2023-05-25T14:50:52.529Z,91.09
2023-05-25T14:53:26.518Z,90.77
2023-05-25T14:56:00.626Z,90.70
2023-05-25T14:58:35.383Z,90.91
2023-05-25T15:00:54.308Z,90.30
2023-05-25T15:03:27.009Z,89.51
2023-05-25T15:05:57.957Z,89.59
2023-05-25T15:08:26.617Z,89.50
2023-05-25T15:11:02.194Z,89.89
2023-05-25T15:13:30.983Z,89.81
2023-05-25T15:16:10.209Z,90.04
2023-05-25T15:18:36.447Z,90.06
2023-05-25T15:21:15.888Z,89.57
2023-05-25T15:23:52.350Z,89.45
2023-05-25T15:26:26.801Z,89.31
2023-05-25T15:29:01.796Z,89.02
2023-05-25T15:31:30.273Z,88.77
2023-05-25T15:34:06.676Z,89.12
2023-05-25T15:36:39.183Z,90.11
2023-05-25T15:39:14.273Z,90.51
2023-05-25T15:41:37.732Z,89.62
2023-05-25T15:44:02.422Z,89.38
2023-05-25T15:46:21.853Z,88.79
2023-05-25T15:48:43.203Z,88.97
2023-05-25T15:51:18.137Z,88.30
2023-05-25T15:53:44.770Z,86.50
2023-05-25T15:56:11.409Z,85.92
2023-05-25T15:58:36.333Z,84.75
2023-05-25T16:01:10.749Z,83.21
2023-05-25T16:03:36.677Z,84.18
2023-05-25T16:06:00.912Z,84.41
2023-05-25T16:08:25.992Z,82.74
2023-05-25T16:10:51.740Z,82.23
2023-05-25T16:13:27.587Z,81.16
2023-05-25T16:15:59.378Z,80.15
2023-05-25T16:18:28.800Z,79.51
2023-05-25T16:21:02.700Z,79.63
2023-05-25T16:23:28.184Z,79.68
2023-05-25T16:25:49.677Z,79.19
2023-05-25T16:28:16.174Z,78.75
2023-05-25T16:30:46.922Z,78.73
2023-05-25T16:33:15.510Z,79.00
2023-05-25T16:35:49.565Z,79.06
2023-05-25T16:38:06.916Z,77.71
2023-05-25T16:40:31.359Z,79.35
2023-05-25T16:43:00.899Z,78.92
2023-05-25T16:45:36.235Z,78.15
2023-05-25T16:48:03.866Z,78.99
2023-05-25T16:50:38.851Z,78.42
2023-05-25T16:53:07.910Z,76.83
2023-05-25T16:55:34.606Z,77.44
2023-05-25T16:58:10.864Z,77.59
2023-05-25T17:00:45.388Z,78.37
2023-05-25T17:03:19.408Z,78.20
2023-05-25T17:05:40.838Z,78.37
2023-05-25T17:08:16.049Z,78.22
2023-05-25T17:10:54.628Z,78.20
2023-05-25T17:13:22.617Z,77.88
2023-05-25T17:15:45.899Z,77.87
2023-05-25T17:18:20.714Z,78.21
2023-05-25T17:20:55.079Z,77.89
2023-05-25T17:23:22.096Z,77.12
2023-05-25T17:25:43.592Z,76.85
2023-05-25T17:28:04.664Z,77.16
2023-05-25T17:30:27.527Z,76.87
2023-05-25T17:32:50.363Z,76.78
2023-05-25T17:35:14.217Z,76.79
2023-05-25T17:37:40.934Z,76.67
2023-05-25T17:40:08.677Z,75.86
2023-05-25T17:42:34.981Z,75.98
2023-05-25T17:44:58.157Z,76.04
2023-05-25T17:47:25.254Z,75.67
2023-05-25T17:49:54.527Z,74.72
2023-05-25T17:52:28.282Z,75.08
2023-05-25T17:55:01.718Z,74.25
2023-05-25T17:57:23.481Z,74.40
2023-05-25T17:59:50.351Z,74.42
2023-05-25T18:02:20.868Z,73.09
2023-05-25T18:04:38.010Z,72.95
2023-05-25T18:07:04.363Z,71.82
2023-05-25T18:09:25.270Z,72.27
2023-05-25T18:11:57.428Z,71.38
2023-05-25T18:14:24.654Z,69.49
2023-05-25T18:16:48.721Z,67.79
2023-05-25T18:19:23.737Z,67.80
2023-05-25T18:21:58.383Z,67.91
2023-05-25T18:24:33.260Z,67.16
2023-05-25T18:26:55.632Z,66.35
2023-05-25T18:29:29.824Z,64.38
2023-05-25T18:31:48.509Z,63.64
2023-05-25T18:34:20.782Z,63.49
2023-05-25T18:36:48.703Z,62.64
2023-05-25T18:39:19.619Z,63.52
2023-05-25T18:41:40.773Z,63.46
2023-05-25T18:44:00.285Z,62.73
2023-05-25T18:46:29.615Z,62.23
2023-05-25T18:49:02.296Z,61.78
2023-05-25T18:51:27.377Z,62.95
2023-05-25T18:53:53.636Z,62.90
2023-05-25T18:56:28.660Z,62.83
2023-05-25T18:58:56.654Z,61.93
2023-05-25T19:01:21.094Z,61.36
2023-05-25T19:03:58.069Z,63.02
2023-05-25T19:06:22.899Z,61.78
2023-05-25T19:08:57.864Z,62.20
2023-05-25T19:11:33.464Z,61.61
2023-05-25T19:14:08.425Z,60.89
2023-05-25T19:16:45.188Z,62.38
2023-05-25T19:19:21.217Z,61.82
2023-05-25T19:21:56.379Z,62.69
2023-05-25T19:24:29.060Z,61.82
2023-05-25T19:27:01.318Z,62.71
2023-05-25T19:29:21.808Z,63.11
2023-05-25T19:31:58.694Z,63.37
2023-05-25T19:34:27.442Z,63.72
2023-05-25T19:37:10.956Z,63.46
2023-05-25T19:39:43.699Z,64.01
2023-05-25T19:42:18.110Z,64.76
2023-05-25T19:44:46.560Z,65.62
2023-05-25T19:47:21.872Z,66.01
2023-05-25T19:49:57.763Z,66.98
2023-05-25T19:52:33.605Z,67.32
2023-05-25T19:54:57.606Z,67.55
2023-05-25T19:57:32.178Z,67.97
2023-05-25T20:00:11.405Z,67.76
2023-05-25T20:02:55.259Z,68.04
2023-05-25T20:05:29.344Z,68.28
2023-05-25T20:07:57.297Z,68.38
2023-05-25T20:10:33.939Z,68.64
2023-05-25T20:13:07.580Z,69.56
2023-05-25T20:15:41.502Z,69.73
2023-05-25T20:18:10.225Z,69.98
2023-05-25T20:20:35.157Z,69.87
2023-05-25T20:22:59.554Z,70.13
2023-05-25T20:25:23.814Z,70.44
2023-05-25T20:27:57.968Z,70.49
2023-05-25T20:30:27.390Z,70.79
2023-05-25T20:32:55.792Z,70.76
2023-05-25T20:35:30.600Z,70.70
2023-05-25T20:38:04.270Z,70.87
2023-05-25T20:40:40.746Z,71.02
2023-05-25T20:43:15.486Z,70.90
2023-05-25T20:45:43.963Z,70.53
2023-05-25T20:48:09.128Z,70.11
2023-05-25T20:50:37.679Z,70.82
2023-05-25T20:53:12.184Z,71.01
2023-05-25T20:55:35.931Z,70.30
2023-05-25T20:58:02.070Z,70.62
2023-05-25T21:00:36.160Z,70.75
2023-05-25T21:03:11.423Z,70.81
2023-05-25T21:05:41.022Z,71.38
2023-05-25T21:08:16.781Z,71.23
2023-05-25T21:10:37.901Z,71.77
2023-05-25T21:13:10.809Z,71.16
2023-05-25T21:15:45.632Z,70.93
2023-05-25T21:18:13.412Z,70.69
2023-05-25T21:20:48.921Z,70.76
2023-05-25T21:23:13.420Z,69.62
2023-05-25T21:25:49.188Z,70.01
2023-05-25T21:28:12.111Z,70.12
2023-05-25T21:30:47.759Z,69.48
2023-05-25T21:33:14.589Z,70.01
2023-05-25T21:35:42.440Z,69.09
2023-05-25T21:38:17.525Z,69.28
2023-05-25T21:40:52.478Z,69.19
2023-05-25T21:43:23.588Z,69.36
2023-05-25T21:45:57.279Z,70.35
2023-05-25T21:48:26.184Z,70.04
2023-05-25T21:50:52.418Z,70.46
2023-05-25T21:53:27.423Z,69.96
2023-05-25T21:55:50.698Z,70.21
2023-05-25T21:58:17.739Z,69.69
2023-05-25T22:00:45.790Z,69.42
2023-05-25T22:03:19.017Z,69.86
2023-05-25T22:05:38.602Z,68.66
2023-05-25T22:08:07.101Z,68.70
2023-05-25T22:10:32.514Z,69.25
2023-05-25T22:13:08.341Z,69.36
2023-05-25T22:15:36.195Z,69.68
2023-05-25T22:18:10.859Z,69.67
2023-05-25T22:20:45.808Z,69.91
2023-05-25T22:23:22.121Z,69.33
2023-05-25T22:25:57.001Z,69.40
2023-05-25T22:28:32.959Z,69.69
2023-05-25T22:31:08.288Z,69.51
2023-05-25T22:33:31.930Z,68.99
2023-05-25T22:36:07.646Z,69.50
2023-05-25T22:38:43.286Z,69.26
2023-05-25T22:41:22.833Z,69.13
2023-05-25T22:43:57.867Z,69.06
2023-05-25T22:46:31.591Z,69.61
2023-05-25T22:49:07.975Z,69.81
2023-05-25T22:51:35.079Z,69.54
2023-05-25T22:54:09.783Z,68.93
2023-05-25T22:56:37.237Z,68.64
2023-05-25T22:59:11.957Z,68.07
2023-05-25T23:01:35.188Z,67.37
2023-05-25T23:03:53.830Z,66.62
2023-05-25T23:06:23.142Z,66.58
2023-05-25T23:08:56.990Z,66.67
2023-05-25T23:11:20.523Z,64.94
2023-05-25T23:13:55.858Z,65.12
2023-05-25T23:16:19.906Z,65.55
2023-05-25T23:18:54.753Z,65.47
2023-05-25T23:21:17.383Z,65.43
2023-05-25T23:23:42.044Z,65.91
2023-05-25T23:26:18.369Z,66.81
2023-05-25T23:28:53.531Z,66.91
2023-05-25T23:31:28.024Z,66.43
2023-05-25T23:33:54.988Z,67.04
2023-05-25T23:36:18.653Z,67.07
2023-05-25T23:38:45.699Z,67.08
2023-05-25T23:41:09.407Z,67.23
2023-05-25T23:43:36.636Z,67.61
2023-05-25T23:46:10.809Z,67.63
2023-05-25T23:48:37.440Z,67.91
2023-05-25T23:51:13.459Z,68.39
2023-05-25T23:53:39.456Z,68.70
2023-05-25T23:56:12.729Z,68.51
2023-05-25T23:58:41.660Z,69.14
